Accueil
METAR-TAF:

METAR-TAF

Aéroports :

Cervia, Italie

latitude: 44-13N, longitude: 012-18E, altitude: 6 m

Observation

Le bulletin a été fait il y a 24 minutes, à 00:55 UTC
Vent 2 kt de ouest
Température 14°C
Humidité 94%
Pression 1015 hPa
Visibilité 10 km ou plus
pas de nuages en-dessous de 1500 mètres et pas de cumulonimbus.

METAR: LIPC 210055Z 28002KT CAVOK 14/13 Q1015 RMK SKC VIS MIN 9999 WIND THR11 26004KT WIND THR29 /////KT BLU

Heure: 03:19 (01:19 UTC)

Prévision

Le bulletin a été fait il y a 2 heures et 19 minutes, à 23:00 UTC
Prévision valable du 21 à 00 UTC au 21 à 09 UTC
Vent 5 kt de ouest
Visibilité 10 km ou plus
Quelques nuages à une hauteur de 4000 ft
Probabilité 30% :
Temporairement
du 21 à 00 UTC au 21 à 06 UTC
Visibilité: 4000 m
brume

TAF: LIPC 202300Z 2100/2109 27005KT 9999 FEW040 PROB30 TEMPO 2100/2106 4000 BR NSC

Observations et prévisions météorologiques de plus de 4000 aéroports (messages METAR et TAF).

Les stations disponibles sont représentées par des disques jaunes et rouges sur la carte.

Passer la souris dessus pour voir le nom de la station.

Cliquer dessus pour voir les observations et prévisions météorologiques.

Pour changer de carte: cliquez sur les boutons verts avec une croix noire pour zoomer, sur le bouton vert avec un tiret pour effectuer un zoom arrière, ou sur les flèches vertes pour les cartes adjacentes.


METAR-TAF: